sensor_id;sensor_type;location;lat;lon;timestamp;pressure;altitude;pressure_sealevel;temperature;humidity
45078;BME280;60508;42.622;25.416;2023-05-22T00:00:40;96488.28;;;17.97;45.89
45078;BME280;60508;42.622;25.416;2023-05-22T00:03:07;96484.97;;;17.81;46.02
45078;BME280;60508;42.622;25.416;2023-05-22T00:05:34;96487.19;;;17.79;45.93
45078;BME280;60508;42.622;25.416;2023-05-22T00:08:10;96482.78;;;17.83;46.10
45078;BME280;60508;42.622;25.416;2023-05-22T00:10:37;96477.81;;;17.71;45.89
45078;BME280;60508;42.622;25.416;2023-05-22T00:13:04;96475.28;;;17.75;46.01
45078;BME280;60508;42.622;25.416;2023-05-22T00:15:32;96479.44;;;17.72;46.63
45078;BME280;60508;42.622;25.416;2023-05-22T00:18:07;96489.22;;;17.73;46.35
45078;BME280;60508;42.622;25.416;2023-05-22T00:20:34;96490.22;;;17.77;46.16
45078;BME280;60508;42.622;25.416;2023-05-22T00:23:04;96476.22;;;17.70;46.90
45078;BME280;60508;42.622;25.416;2023-05-22T00:25:30;96485.44;;;17.69;47.47
45078;BME280;60508;42.622;25.416;2023-05-22T00:27:57;96485.66;;;17.73;47.04
45078;BME280;60508;42.622;25.416;2023-05-22T00:30:24;96478.63;;;17.72;47.50
45078;BME280;60508;42.622;25.416;2023-05-22T00:32:59;96485.84;;;17.62;47.59
45078;BME280;60508;42.622;25.416;2023-05-22T00:35:25;96469.38;;;17.53;47.86
45078;BME280;60508;42.622;25.416;2023-05-22T00:37:52;96473.72;;;17.55;48.35
45078;BME280;60508;42.622;25.416;2023-05-22T00:40:19;96475.94;;;17.52;48.10
45078;BME280;60508;42.622;25.416;2023-05-22T00:42:46;96477.97;;;17.61;48.16
45078;BME280;60508;42.622;25.416;2023-05-22T00:45:13;96477.25;;;17.55;48.00
45078;BME280;60508;42.622;25.416;2023-05-22T00:47:49;96492.88;;;17.63;48.29
45078;BME280;60508;42.622;25.416;2023-05-22T00:50:17;96488.63;;;17.57;48.20
45078;BME280;60508;42.622;25.416;2023-05-22T00:52:45;96484.28;;;17.56;48.27
45078;BME280;60508;42.622;25.416;2023-05-22T00:55:13;96491.34;;;17.57;48.79
45078;BME280;60508;42.622;25.416;2023-05-22T00:57:47;96480.03;;;17.50;49.27
45078;BME280;60508;42.622;25.416;2023-05-22T01:00:16;96474.31;;;17.51;49.64
45078;BME280;60508;42.622;25.416;2023-05-22T01:02:43;96490.81;;;17.55;49.40
45078;BME280;60508;42.622;25.416;2023-05-22T01:05:10;96486.88;;;17.47;49.34
45078;BME280;60508;42.622;25.416;2023-05-22T01:07:38;96491.06;;;17.59;49.16
45078;BME280;60508;42.622;25.416;2023-05-22T01:10:13;96487.66;;;17.67;49.15
45078;BME280;60508;42.622;25.416;2023-05-22T01:25:55;96475.75;;;17.63;49.61
45078;BME280;60508;42.622;25.416;2023-05-22T01:28:41;96470.03;;;17.64;50.01
45078;BME280;60508;42.622;25.416;2023-05-22T01:31:16;96475.75;;;17.63;49.54
45078;BME280;60508;42.622;25.416;2023-05-22T01:33:47;96474.59;;;17.69;49.82
45078;BME280;60508;42.622;25.416;2023-05-22T01:36:24;96475.38;;;17.69;49.13
45078;BME280;60508;42.622;25.416;2023-05-22T01:38:54;96467.75;;;17.72;49.25
45078;BME280;60508;42.622;25.416;2023-05-22T01:41:21;96466.94;;;17.71;49.01
45078;BME280;60508;42.622;25.416;2023-05-22T01:43:48;96475.28;;;17.75;48.53
45078;BME280;60508;42.622;25.416;2023-05-22T01:46:14;96465.84;;;17.72;48.38
45078;BME280;60508;42.622;25.416;2023-05-22T01:48:41;96472.06;;;17.73;48.82
45078;BME280;60508;42.622;25.416;2023-05-22T01:51:15;96463.38;;;17.57;48.78
45078;BME280;60508;42.622;25.416;2023-05-22T01:53:56;96460.16;;;17.55;49.09
45078;BME280;60508;42.622;25.416;2023-05-22T01:56:32;96456.63;;;17.54;48.99
45078;BME280;60508;42.622;25.416;2023-05-22T02:02:04;96456.34;;;17.56;49.01
45078;BME280;60508;42.622;25.416;2023-05-22T02:04:43;96472.06;;;17.40;50.37
45078;BME280;60508;42.622;25.416;2023-05-22T02:07:12;96445.94;;;17.06;51.11
45078;BME280;60508;42.622;25.416;2023-05-22T02:09:49;96450.50;;;17.10;51.35
45078;BME280;60508;42.622;25.416;2023-05-22T02:12:18;96454.44;;;17.18;51.37
45078;BME280;60508;42.622;25.416;2023-05-22T02:14:45;96463.53;;;17.08;51.74
45078;BME280;60508;42.622;25.416;2023-05-22T02:17:19;96462.72;;;16.89;52.21
45078;BME280;60508;42.622;25.416;2023-05-22T02:19:47;96452.16;;;16.87;52.52
45078;BME280;60508;42.622;25.416;2023-05-22T02:22:14;96458.97;;;16.85;52.88
45078;BME280;60508;42.622;25.416;2023-05-22T02:24:48;96455.13;;;16.91;52.89
45078;BME280;60508;42.622;25.416;2023-05-22T02:27:16;96451.28;;;16.92;52.20
45078;BME280;60508;42.622;25.416;2023-05-22T02:29:42;96458.13;;;16.89;52.25
45078;BME280;60508;42.622;25.416;2023-05-22T02:32:09;96467.59;;;17.11;52.42
45078;BME280;60508;42.622;25.416;2023-05-22T02:34:35;96462.00;;;17.21;52.13
45078;BME280;60508;42.622;25.416;2023-05-22T02:37:13;96461.94;;;17.26;52.56
45078;BME280;60508;42.622;25.416;2023-05-22T02:39:41;96450.88;;;17.04;53.14
45078;BME280;60508;42.622;25.416;2023-05-22T02:42:08;96459.56;;;17.20;52.95
45078;BME280;60508;42.622;25.416;2023-05-22T02:44:38;96459.53;;;17.06;54.10
45078;BME280;60508;42.622;25.416;2023-05-22T02:47:05;96464.06;;;16.91;54.31
45078;BME280;60508;42.622;25.416;2023-05-22T02:49:38;96448.06;;;16.90;53.20
45078;BME280;60508;42.622;25.416;2023-05-22T02:52:05;96466.25;;;17.08;52.98
45078;BME280;60508;42.622;25.416;2023-05-22T02:54:32;96459.34;;;17.16;53.14
45078;BME280;60508;42.622;25.416;2023-05-22T02:57:07;96454.00;;;17.11;53.29
45078;BME280;60508;42.622;25.416;2023-05-22T02:59:39;96470.09;;;17.26;53.35
45078;BME280;60508;42.622;25.416;2023-05-22T03:02:09;96461.13;;;17.26;53.73
45078;BME280;60508;42.622;25.416;2023-05-22T03:04:37;96455.78;;;17.21;54.33
45078;BME280;60508;42.622;25.416;2023-05-22T03:07:09;96465.66;;;17.11;54.59
45078;BME280;60508;42.622;25.416;2023-05-22T03:09:37;96461.56;;;17.14;54.70
45078;BME280;60508;42.622;25.416;2023-05-22T03:12:06;96459.06;;;17.18;54.51
45078;BME280;60508;42.622;25.416;2023-05-22T03:14:33;96451.88;;;17.08;54.17
45078;BME280;60508;42.622;25.416;2023-05-22T03:16:59;96452.69;;;17.08;53.62
45078;BME280;60508;42.622;25.416;2023-05-22T03:19:34;96458.28;;;17.17;53.30
45078;BME280;60508;42.622;25.416;2023-05-22T03:22:00;96467.38;;;17.26;53.07
45078;BME280;60508;42.622;25.416;2023-05-22T03:24:28;96452.47;;;17.24;54.52
45078;BME280;60508;42.622;25.416;2023-05-22T03:26:55;96459.16;;;17.12;54.30
45078;BME280;60508;42.622;25.416;2023-05-22T03:29:33;96462.38;;;17.14;52.84
45078;BME280;60508;42.622;25.416;2023-05-22T03:32:09;96458.66;;;17.10;54.04
45078;BME280;60508;42.622;25.416;2023-05-22T03:34:36;96451.50;;;16.95;55.50
45078;BME280;60508;42.622;25.416;2023-05-22T03:37:05;96466.72;;;17.15;54.74
45078;BME280;60508;42.622;25.416;2023-05-22T03:39:31;96461.03;;;17.31;54.44
45078;BME280;60508;42.622;25.416;2023-05-22T03:42:04;96464.50;;;17.37;52.42
45078;BME280;60508;42.622;25.416;2023-05-22T03:44:39;96458.03;;;17.32;52.64
45078;BME280;60508;42.622;25.416;2023-05-22T03:47:05;96465.66;;;17.49;52.49
45078;BME280;60508;42.622;25.416;2023-05-22T03:49:32;96465.38;;;17.51;53.37
45078;BME280;60508;42.622;25.416;2023-05-22T03:51:58;96468.88;;;17.51;54.24
45078;BME280;60508;42.622;25.416;2023-05-22T03:54:32;96475.66;;;17.54;53.45
45078;BME280;60508;42.622;25.416;2023-05-22T03:56:59;96475.25;;;17.61;53.06
45078;BME280;60508;42.622;25.416;2023-05-22T03:59:26;96478.47;;;17.63;51.99
45078;BME280;60508;42.622;25.416;2023-05-22T04:02:00;96473.56;;;17.65;52.54
45078;BME280;60508;42.622;25.416;2023-05-22T04:04:27;96474.81;;;17.53;52.98
45078;BME280;60508;42.622;25.416;2023-05-22T04:06:53;96479.00;;;17.65;53.24
45078;BME280;60508;42.622;25.416;2023-05-22T04:09:30;96485.16;;;17.70;54.14
45078;BME280;60508;42.622;25.416;2023-05-22T04:11:57;96488.38;;;17.73;54.39
45078;BME280;60508;42.622;25.416;2023-05-22T04:14:24;96487.88;;;17.70;54.56
45078;BME280;60508;42.622;25.416;2023-05-22T04:16:51;96479.00;;;17.65;54.29
45078;BME280;60508;42.622;25.416;2023-05-22T04:19:18;96480.72;;;17.75;54.52
45078;BME280;60508;42.622;25.416;2023-05-22T04:21:45;96484.09;;;17.85;54.55
45078;BME280;60508;42.622;25.416;2023-05-22T04:24:20;96482.94;;;17.92;55.26
45078;BME280;60508;42.622;25.416;2023-05-22T04:26:48;96483.38;;;17.80;54.68
45078;BME280;60508;42.622;25.416;2023-05-22T04:29:15;96481.06;;;17.87;54.03
45078;BME280;60508;42.622;25.416;2023-05-22T04:31:42;96485.06;;;17.76;53.17
45078;BME280;60508;42.622;25.416;2023-05-22T04:34:11;96487.19;;;17.79;54.01
45078;BME280;60508;42.622;25.416;2023-05-22T04:36:42;96477.69;;;17.95;53.20
45078;BME280;60508;42.622;25.416;2023-05-22T04:39:10;96487.59;;;17.86;53.74
45078;BME280;60508;42.622;25.416;2023-05-22T04:41:37;96494.41;;;17.88;54.50
45078;BME280;60508;42.622;25.416;2023-05-22T04:44:07;96492.41;;;17.94;54.99
45078;BME280;60508;42.622;25.416;2023-05-22T04:46:34;96499.78;;;18.08;54.70
45078;BME280;60508;42.622;25.416;2023-05-22T04:49:01;96497.13;;;18.35;54.13
45078;BME280;60508;42.622;25.416;2023-05-22T04:51:28;96498.97;;;18.54;53.73
45078;BME280;60508;42.622;25.416;2023-05-22T04:54:09;96488.97;;;18.49;50.33
45078;BME280;60508;42.622;25.416;2023-05-22T04:56:35;96491.88;;;18.67;49.86
45078;BME280;60508;42.622;25.416;2023-05-22T04:59:03;96505.19;;;18.68;48.91
45078;BME280;60508;42.622;25.416;2023-05-22T05:01:30;96493.72;;;18.57;49.80
45078;BME280;60508;42.622;25.416;2023-05-22T05:03:57;96498.47;;;18.66;48.68
45078;BME280;60508;42.622;25.416;2023-05-22T05:06:23;96490.28;;;18.66;50.74
45078;BME280;60508;42.622;25.416;2023-05-22T05:08:52;96495.41;;;18.81;50.50
45078;BME280;60508;42.622;25.416;2023-05-22T05:11:24;96493.41;;;19.01;49.67
45078;BME280;60508;42.622;25.416;2023-05-22T05:13:51;96496.00;;;19.20;50.39
45078;BME280;60508;42.622;25.416;2023-05-22T05:16:17;96502.94;;;19.26;50.03
45078;BME280;60508;42.622;25.416;2023-05-22T05:18:45;96504.50;;;19.41;49.77
45078;BME280;60508;42.622;25.416;2023-05-22T05:21:20;96498.84;;;19.51;49.39
45078;BME280;60508;42.622;25.416;2023-05-22T05:23:47;96493.72;;;19.49;49.08
45078;BME280;60508;42.622;25.416;2023-05-22T05:26:14;96506.81;;;19.47;48.32
45078;BME280;60508;42.622;25.416;2023-05-22T05:28:41;96496.56;;;19.67;48.68
45078;BME280;60508;42.622;25.416;2023-05-22T05:31:09;96512.50;;;19.74;47.95
45078;BME280;60508;42.622;25.416;2023-05-22T05:34:02;96507.84;;;19.74;48.18
45078;BME280;60508;42.622;25.416;2023-05-22T05:37:04;96503.13;;;19.80;47.92
45078;BME280;60508;42.622;25.416;2023-05-22T05:39:32;96501.09;;;19.94;47.57
45078;BME280;60508;42.622;25.416;2023-05-22T05:42:01;96500.78;;;19.96;47.73
45078;BME280;60508;42.622;25.416;2023-05-22T05:44:27;96504.81;;;19.98;47.96
45078;BME280;60508;42.622;25.416;2023-05-22T05:46:54;96512.00;;;19.94;48.02
45078;BME280;60508;42.622;25.416;2023-05-22T05:49:29;96507.31;;;19.86;48.08
45078;BME280;60508;42.622;25.416;2023-05-22T05:51:56;96502.72;;;19.95;48.58
45078;BME280;60508;42.622;25.416;2023-05-22T05:54:24;96502.84;;;19.90;48.14
45078;BME280;60508;42.622;25.416;2023-05-22T05:56:58;96505.28;;;19.92;48.70
45078;BME280;60508;42.622;25.416;2023-05-22T05:59:24;96512.44;;;19.87;49.18
45078;BME280;60508;42.622;25.416;2023-05-22T06:02:09;96502.06;;;19.90;49.29
45078;BME280;60508;42.622;25.416;2023-05-22T06:04:36;96513.19;;;20.02;48.99
45078;BME280;60508;42.622;25.416;2023-05-22T06:07:03;96506.63;;;20.03;48.58
45078;BME280;60508;42.622;25.416;2023-05-22T06:09:41;96502.72;;;19.95;48.74
45078;BME280;60508;42.622;25.416;2023-05-22T06:12:15;96513.06;;;20.07;49.43
45078;BME280;60508;42.622;25.416;2023-05-22T06:14:49;96504.78;;;20.12;49.50
45078;BME280;60508;42.622;25.416;2023-05-22T06:17:16;96504.94;;;20.16;49.06
45078;BME280;60508;42.622;25.416;2023-05-22T06:19:44;96514.78;;;20.25;48.81
45078;BME280;60508;42.622;25.416;2023-05-22T06:22:12;96515.09;;;20.24;48.17
45078;BME280;60508;42.622;25.416;2023-05-22T06:24:49;96512.91;;;20.35;48.84
45078;BME280;60508;42.622;25.416;2023-05-22T06:27:23;96515.84;;;20.47;49.11
45078;BME280;60508;42.622;25.416;2023-05-22T06:29:58;96501.13;;;20.57;47.68
45078;BME280;60508;42.622;25.416;2023-05-22T06:32:31;96503.00;;;20.70;47.45
45078;BME280;60508;42.622;25.416;2023-05-22T06:34:58;96495.78;;;20.83;46.11
45078;BME280;60508;42.622;25.416;2023-05-22T06:37:27;96502.91;;;20.93;46.43
45078;BME280;60508;42.622;25.416;2023-05-22T06:40:06;96503.22;;;21.09;46.51
45078;BME280;60508;42.622;25.416;2023-05-22T06:42:42;96506.63;;;21.23;46.28
45078;BME280;60508;42.622;25.416;2023-05-22T06:45:39;96510.53;;;21.40;45.37
45078;BME280;60508;42.622;25.416;2023-05-22T06:48:26;96513.13;;;21.54;45.67
45078;BME280;60508;42.622;25.416;2023-05-22T06:51:04;96509.13;;;21.77;45.29
45078;BME280;60508;42.622;25.416;2023-05-22T06:53:41;96519.41;;;21.89;44.25
45078;BME280;60508;42.622;25.416;2023-05-22T06:56:13;96522.63;;;21.82;43.41
45078;BME280;60508;42.622;25.416;2023-05-22T06:58:51;96522.78;;;21.68;43.66
45078;BME280;60508;42.622;25.416;2023-05-22T07:01:19;96512.16;;;21.58;43.45
45078;BME280;60508;42.622;25.416;2023-05-22T07:03:59;96515.53;;;21.55;42.81
45078;BME280;60508;42.622;25.416;2023-05-22T07:06:34;96519.22;;;21.77;43.81
45078;BME280;60508;42.622;25.416;2023-05-22T07:09:11;96520.31;;;22.11;43.67
45078;BME280;60508;42.622;25.416;2023-05-22T07:11:39;96522.41;;;22.22;42.24
45078;BME280;60508;42.622;25.416;2023-05-22T07:14:08;96515.50;;;22.34;40.78
45078;BME280;60508;42.622;25.416;2023-05-22T07:16:35;96520.28;;;22.46;42.80
45078;BME280;60508;42.622;25.416;2023-05-22T07:19:03;96518.09;;;22.30;42.08
45078;BME280;60508;42.622;25.416;2023-05-22T07:21:39;96525.00;;;22.19;41.87
45078;BME280;60508;42.622;25.416;2023-05-22T07:24:07;96522.75;;;22.03;42.28
45078;BME280;60508;42.622;25.416;2023-05-22T07:26:36;96531.75;;;22.13;43.94
45078;BME280;60508;42.622;25.416;2023-05-22T07:29:07;96528.69;;;22.23;41.75
45078;BME280;60508;42.622;25.416;2023-05-22T07:31:43;96531.72;;;22.21;42.53
45078;BME280;60508;42.622;25.416;2023-05-22T07:34:11;96544.44;;;22.26;43.72
45078;BME280;60508;42.622;25.416;2023-05-22T07:36:37;96533.22;;;22.19;45.20
45078;BME280;60508;42.622;25.416;2023-05-22T07:39:13;96521.78;;;21.99;48.07
45078;BME280;60508;42.622;25.416;2023-05-22T07:41:46;96534.97;;;22.15;49.06
45078;BME280;60508;42.622;25.416;2023-05-22T07:44:24;96531.13;;;22.07;48.42
45078;BME280;60508;42.622;25.416;2023-05-22T07:46:51;96524.50;;;22.17;49.04
45078;BME280;60508;42.622;25.416;2023-05-22T07:49:22;96534.44;;;22.48;48.60
45078;BME280;60508;42.622;25.416;2023-05-22T07:51:50;96532.09;;;22.67;47.64
45078;BME280;60508;42.622;25.416;2023-05-22T07:54:19;96545.47;;;22.69;48.22
45078;BME280;60508;42.622;25.416;2023-05-22T07:56:51;96532.16;;;22.97;46.11
45078;BME280;60508;42.622;25.416;2023-05-22T07:59:27;96531.50;;;23.00;46.39
45078;BME280;60508;42.622;25.416;2023-05-22T08:01:58;96522.28;;;23.05;45.90
45078;BME280;60508;42.622;25.416;2023-05-22T08:04:24;96530.06;;;22.55;46.29
45078;BME280;60508;42.622;25.416;2023-05-22T08:06:54;96533.47;;;22.52;46.60
45078;BME280;60508;42.622;25.416;2023-05-22T08:09:23;96522.88;;;22.33;46.81
45078;BME280;60508;42.622;25.416;2023-05-22T08:11:57;96528.06;;;22.73;46.24
45078;BME280;60508;42.622;25.416;2023-05-22T08:14:24;96513.78;;;22.97;45.47
45078;BME280;60508;42.622;25.416;2023-05-22T08:16:50;96515.25;;;23.25;45.96
45078;BME280;60508;42.622;25.416;2023-05-22T08:19:17;96525.03;;;23.34;45.76
45078;BME280;60508;42.622;25.416;2023-05-22T08:21:44;96526.94;;;23.04;44.49
45078;BME280;60508;42.622;25.416;2023-05-22T08:24:17;96532.41;;;23.43;44.14
45078;BME280;60508;42.622;25.416;2023-05-22T08:26:44;96538.88;;;23.59;44.76
45078;BME280;60508;42.622;25.416;2023-05-22T08:29:11;96534.34;;;23.63;44.26
45078;BME280;60508;42.622;25.416;2023-05-22T08:31:45;96527.78;;;23.56;43.52
45078;BME280;60508;42.622;25.416;2023-05-22T08:34:12;96535.50;;;23.83;44.83
45078;BME280;60508;42.622;25.416;2023-05-22T08:36:39;96538.72;;;24.19;43.15
45078;BME280;60508;42.622;25.416;2023-05-22T08:39:08;96536.81;;;24.32;42.12
45078;BME280;60508;42.622;25.416;2023-05-22T08:41:35;96534.97;;;24.23;41.99
45078;BME280;60508;42.622;25.416;2023-05-22T08:44:01;96527.56;;;24.36;41.67
45078;BME280;60508;42.622;25.416;2023-05-22T08:46:29;96521.13;;;23.86;43.58
45078;BME280;60508;42.622;25.416;2023-05-22T08:49:04;96534.69;;;24.04;41.95
45078;BME280;60508;42.622;25.416;2023-05-22T08:51:32;96530.00;;;23.83;43.36
45078;BME280;60508;42.622;25.416;2023-05-22T08:53:59;96534.22;;;24.02;43.42
45078;BME280;60508;42.622;25.416;2023-05-22T08:56:39;96531.63;;;23.84;42.51
45078;BME280;60508;42.622;25.416;2023-05-22T08:59:06;96518.09;;;23.58;42.93
45078;BME280;60508;42.622;25.416;2023-05-22T09:01:33;96519.22;;;23.06;44.47
45078;BME280;60508;42.622;25.416;2023-05-22T09:04:01;96511.09;;;23.19;44.61
45078;BME280;60508;42.622;25.416;2023-05-22T09:06:28;96504.91;;;23.30;44.07
45078;BME280;60508;42.622;25.416;2023-05-22T09:08:56;96507.78;;;23.55;44.52
45078;BME280;60508;42.622;25.416;2023-05-22T09:11:23;96509.56;;;24.14;42.52
45078;BME280;60508;42.622;25.416;2023-05-22T09:14:08;96511.66;;;24.75;41.38
45078;BME280;60508;42.622;25.416;2023-05-22T09:16:43;96507.28;;;24.62;41.51
45078;BME280;60508;42.622;25.416;2023-05-22T09:19:20;96512.31;;;24.60;42.03
45078;BME280;60508;42.622;25.416;2023-05-22T09:21:46;96507.31;;;24.99;41.90
45078;BME280;60508;42.622;25.416;2023-05-22T09:24:13;96507.06;;;25.17;40.58
45078;BME280;60508;42.622;25.416;2023-05-22T09:26:40;96501.69;;;24.83;40.39
45078;BME280;60508;42.622;25.416;2023-05-22T09:29:07;96506.84;;;25.09;41.78
45078;BME280;60508;42.622;25.416;2023-05-22T09:31:41;96509.81;;;24.67;37.39
45078;BME280;60508;42.622;25.416;2023-05-22T09:34:09;96512.16;;;24.44;35.74
45078;BME280;60508;42.622;25.416;2023-05-22T09:36:36;96492.47;;;24.42;34.92
45078;BME280;60508;42.622;25.416;2023-05-22T09:39:03;96498.72;;;24.64;34.44
45078;BME280;60508;42.622;25.416;2023-05-22T09:41:38;96496.88;;;24.80;35.24
45078;BME280;60508;42.622;25.416;2023-05-22T09:44:23;96488.41;;;24.97;34.04
45078;BME280;60508;42.622;25.416;2023-05-22T09:46:53;96486.94;;;25.00;33.51
45078;BME280;60508;42.622;25.416;2023-05-22T09:49:19;96482.22;;;25.01;34.32
45078;BME280;60508;42.622;25.416;2023-05-22T09:51:47;96495.88;;;24.97;34.94
45078;BME280;60508;42.622;25.416;2023-05-22T09:54:26;96477.88;;;24.87;33.77
45078;BME280;60508;42.622;25.416;2023-05-22T09:56:55;96487.03;;;24.67;35.38
45078;BME280;60508;42.622;25.416;2023-05-22T09:59:26;96490.31;;;24.48;35.03
45078;BME280;60508;42.622;25.416;2023-05-22T10:01:55;96485.09;;;24.67;35.61
45078;BME280;60508;42.622;25.416;2023-05-22T10:04:32;96479.13;;;24.90;34.82
45078;BME280;60508;42.622;25.416;2023-05-22T10:07:01;96495.38;;;25.20;34.19
45078;BME280;60508;42.622;25.416;2023-05-22T10:09:30;96486.31;;;25.44;33.34
45078;BME280;60508;42.622;25.416;2023-05-22T10:12:09;96492.63;;;25.20;33.63
45078;BME280;60508;42.622;25.416;2023-05-22T10:14:38;96488.38;;;25.22;33.72
45078;BME280;60508;42.622;25.416;2023-05-22T10:17:06;96486.44;;;25.35;33.22
45078;BME280;60508;42.622;25.416;2023-05-22T10:19:40;96471.28;;;25.54;33.48
45078;BME280;60508;42.622;25.416;2023-05-22T10:22:07;96488.41;;;25.75;33.38
45078;BME280;60508;42.622;25.416;2023-05-22T10:24:37;96475.28;;;25.97;32.28
45078;BME280;60508;42.622;25.416;2023-05-22T10:27:04;96471.75;;;26.12;33.38
45078;BME280;60508;42.622;25.416;2023-05-22T10:29:46;96474.34;;;26.37;32.86
45078;BME280;60508;42.622;25.416;2023-05-22T10:32:33;96475.50;;;26.36;31.55
45078;BME280;60508;42.622;25.416;2023-05-22T10:35:15;96469.16;;;26.03;32.69
45078;BME280;60508;42.622;25.416;2023-05-22T10:37:55;96466.41;;;26.03;31.67
45078;BME280;60508;42.622;25.416;2023-05-22T10:40:38;96478.88;;;26.29;31.78
45078;BME280;60508;42.622;25.416;2023-05-22T10:43:07;96470.63;;;26.29;31.80
45078;BME280;60508;42.622;25.416;2023-05-22T10:45:33;96468.41;;;26.51;31.02
45078;BME280;60508;42.622;25.416;2023-05-22T10:48:06;96454.91;;;26.62;31.10
45078;BME280;60508;42.622;25.416;2023-05-22T10:50:34;96457.31;;;26.63;32.05
45078;BME280;60508;42.622;25.416;2023-05-22T10:56:14;96456.97;;;26.04;33.27
45078;BME280;60508;42.622;25.416;2023-05-22T10:58:57;96440.31;;;26.13;33.20
45078;BME280;60508;42.622;25.416;2023-05-22T11:01:28;96445.03;;;26.45;32.00
45078;BME280;60508;42.622;25.416;2023-05-22T11:06:44;96439.41;;;26.09;32.49
45078;BME280;60508;42.622;25.416;2023-05-22T11:12:25;96431.31;;;25.72;33.67
45078;BME280;60508;42.622;25.416;2023-05-22T11:15:05;96448.28;;;25.74;33.93
45078;BME280;60508;42.622;25.416;2023-05-22T11:17:38;96435.28;;;25.59;33.87
45078;BME280;60508;42.622;25.416;2023-05-22T11:20:19;96441.94;;;24.92;35.08
45078;BME280;60508;42.622;25.416;2023-05-22T11:23:00;96439.50;;;24.29;35.94
45078;BME280;60508;42.622;25.416;2023-05-22T11:25:27;96442.41;;;24.82;36.75
45078;BME280;60508;42.622;25.416;2023-05-22T11:27:55;96441.00;;;25.01;37.24
45078;BME280;60508;42.622;25.416;2023-05-22T11:30:25;96433.31;;;24.32;36.91
45078;BME280;60508;42.622;25.416;2023-05-22T11:32:53;96435.47;;;24.27;37.33
45078;BME280;60508;42.622;25.416;2023-05-22T11:35:20;96426.56;;;24.42;35.67
45078;BME280;60508;42.622;25.416;2023-05-22T11:37:48;96435.72;;;24.34;34.15
45078;BME280;60508;42.622;25.416;2023-05-22T11:40:26;96446.81;;;24.50;34.57
45078;BME280;60508;42.622;25.416;2023-05-22T11:42:55;96437.78;;;24.49;34.47
45078;BME280;60508;42.622;25.416;2023-05-22T11:45:22;96448.19;;;24.31;34.60
45078;BME280;60508;42.622;25.416;2023-05-22T11:47:49;96444.63;;;24.31;35.30
45078;BME280;60508;42.622;25.416;2023-05-22T11:50:16;96460.16;;;24.14;35.72
45078;BME280;60508;42.622;25.416;2023-05-22T11:52:52;96458.16;;;23.90;38.51
45078;BME280;60508;42.622;25.416;2023-05-22T11:55:19;96449.94;;;22.37;44.27
45078;BME280;60508;42.622;25.416;2023-05-22T11:57:45;96452.00;;;21.93;47.25
45078;BME280;60508;42.622;25.416;2023-05-22T12:00:19;96472.28;;;21.83;48.78
45078;BME280;60508;42.622;25.416;2023-05-22T12:02:46;96477.56;;;21.88;49.16
45078;BME280;60508;42.622;25.416;2023-05-22T12:05:15;96453.47;;;21.64;49.98
45078;BME280;60508;42.622;25.416;2023-05-22T12:07:42;96457.97;;;21.51;49.86
45078;BME280;60508;42.622;25.416;2023-05-22T12:10:17;96470.34;;;21.40;50.39
45078;BME280;60508;42.622;25.416;2023-05-22T12:12:44;96465.72;;;20.83;52.15
45078;BME280;60508;42.622;25.416;2023-05-22T12:15:13;96472.59;;;20.72;52.52
45078;BME280;60508;42.622;25.416;2023-05-22T12:17:39;96473.94;;;20.83;51.93
45078;BME280;60508;42.622;25.416;2023-05-22T12:20:06;96464.78;;;20.88;51.68
45078;BME280;60508;42.622;25.416;2023-05-22T12:22:39;96463.41;;;21.08;51.42
45078;BME280;60508;42.622;25.416;2023-05-22T12:25:14;96467.28;;;21.15;51.19
45078;BME280;60508;42.622;25.416;2023-05-22T12:27:45;96472.09;;;21.36;51.05
45078;BME280;60508;42.622;25.416;2023-05-22T12:30:20;96481.25;;;21.23;51.38
45078;BME280;60508;42.622;25.416;2023-05-22T12:32:49;96473.38;;;21.39;50.77
45078;BME280;60508;42.622;25.416;2023-05-22T12:35:16;96477.75;;;21.40;50.53
45078;BME280;60508;42.622;25.416;2023-05-22T12:37:47;96483.53;;;21.38;50.91
45078;BME280;60508;42.622;25.416;2023-05-22T12:40:15;96472.28;;;21.48;50.24
45078;BME280;60508;42.622;25.416;2023-05-22T12:42:42;96482.53;;;21.43;50.45
45078;BME280;60508;42.622;25.416;2023-05-22T12:45:10;96480.25;;;21.10;51.21
45078;BME280;60508;42.622;25.416;2023-05-22T12:47:47;96468.38;;;21.14;50.90
45078;BME280;60508;42.622;25.416;2023-05-22T12:50:14;96471.91;;;21.15;50.69
45078;BME280;60508;42.622;25.416;2023-05-22T12:52:41;96466.91;;;21.00;51.46
45078;BME280;60508;42.622;25.416;2023-05-22T12:55:09;96457.75;;;20.87;51.27
45078;BME280;60508;42.622;25.416;2023-05-22T12:57:36;96448.25;;;20.84;52.42
45078;BME280;60508;42.622;25.416;2023-05-22T13:00:11;96446.69;;;20.60;53.71
45078;BME280;60508;42.622;25.416;2023-05-22T13:02:38;96448.84;;;20.32;55.53
45078;BME280;60508;42.622;25.416;2023-05-22T13:05:06;96449.25;;;20.48;55.85
45078;BME280;60508;42.622;25.416;2023-05-22T13:07:32;96440.75;;;20.58;55.49
45078;BME280;60508;42.622;25.416;2023-05-22T13:09:59;96441.50;;;20.99;55.17
45078;BME280;60508;42.622;25.416;2023-05-22T13:12:34;96438.00;;;21.42;53.92
45078;BME280;60508;42.622;25.416;2023-05-22T13:15:01;96438.34;;;21.58;54.15
45078;BME280;60508;42.622;25.416;2023-05-22T13:17:28;96442.97;;;21.93;54.56
45078;BME280;60508;42.622;25.416;2023-05-22T13:19:55;96441.66;;;21.99;52.66
45078;BME280;60508;42.622;25.416;2023-05-22T13:22:23;96434.03;;;22.22;53.35
45078;BME280;60508;42.622;25.416;2023-05-22T13:24:50;96445.00;;;22.13;48.78
45078;BME280;60508;42.622;25.416;2023-05-22T13:27:22;96452.00;;;21.93;50.02
45078;BME280;60508;42.622;25.416;2023-05-22T13:29:49;96450.72;;;21.82;50.75
45078;BME280;60508;42.622;25.416;2023-05-22T13:32:18;96473.38;;;21.39;51.70